Aérodrome :
LOGIN :

S'inscrire | Disclaimer

   EN    FR    IT 

 










Légende :    VFR   VFR Marginal   IFR   IFR Intensif   IFR Très Intensif
Visi : 
Plafond : 
>= 8 km
>= 3000ft
5 à 8 km
1000 à 3000 ft
1500m à 5 km
500 à 1000 ft
800 à 1500m
200 à 500 ft
< 800m
< 200 ft
Symboles :   Orages  Brouillard  Fortes neiges  Fortes précipitations  Vent > 20 kt
SIGMETs :   Divers  Orages  Givrage  Turbulence  Onde Orograph.  Cendres Volcan.







- Altitude de l'aérodrome : 424 ft
- Code IATA : QGY


LHPR - Györ Per

DERNIER METAR :
  • 210045Z AUTO 03006KT 3100 BR BKN002 04/04 Q1013 RMK AMB

METARs EXPIRÉS :
  • 210015Z AUTO 06004KT 2900 BR BKN002 04/04 Q1014 RMK AMB
  • 202345Z AUTO 08004KT 050V110 3200 BR BKN002 04/04 Q1014 RMK AMB
  • 202315Z AUTO 07004KT 3600 BR OVC002 04/04 Q1014 RMK AMB
  • 202245Z AUTO 08004KT 050V110 3600 BR OVC003 04/04 Q1014 RMK YLO
  • 202215Z AUTO 08004KT 4600 BR OVC003 04/04 Q1014 RMK YLO

TAF TAF LHPR
Valide du 20 à 18h jusqu'au 21 à 03h UTC


201715Z 2018/2103 10005KT 6000 OVC007
BECMG 2018/2021 3000 BR -DZ OVC003
TEMPO 2021/2103 1200 BR DZ OVC002
Pas de NOTAMs connus pour ce terrain.



MET'MAP, la Météo Aéronautique d'un coup d'oeil ! - Copyright ORBIFLY Décembre 2007 - Disclaimer

ORBIFLY MET'MAP TEAM :

Programmation & Développement : Alexandra Zaïnal
Conception & Développement : Baudouin d'Aumeries
Co-Programmation & Développement : Marc-Olivier Méhu
Soutien technique & logistique : Manuel Goepfert

Contact : metmap@orbifly.com




SOURCES & CREDITS :

   NOAA